Main page
METAR-TAF:

METAR-TAF

Airports :

Southampton Airport

Southampton, England

latitude: 50-54N, longitude: 001-24W, elevation: 9 m

Current weather observation

The report was made 29 minutes ago, at 11:50 UTC
Wind 2 kt from variable directions
Temperature 21°C
Humidity 60%
Pressure 1021 hPa
Visibility 10 km or more
Broken clouds at a height of 3400 ft

METAR: EGHI 231150Z VRB02KT 9999 BKN034 21/13 Q1021

Time: 13:19 (12:19 UTC)

Forecast

The report was made 1 hour and 17 minutes ago, at 11:02 UTC
Forecast valid from 23 at 12 UTC to 23 at 21 UTC
Wind 3 kt from variable directions
Visibility 10 km or more
Scattered clouds at a height of 3000 ft

TAF: EGHI 231102Z 2312/2321 VRB03KT 9999 SCT030

Weather observations and forecasts of more than 4000 airports (METAR and TAF reports).

The available stations are represented by yellow and red dots on the map.

Hover mouse over dot to see the name of the station.

Then click to see weather observations and forecasts.

To change the map : click on the green buttons with a black cross to zoom in, on the green button with a dash to zoom out, or on the green arrows for adjacent maps.


METAR-TAF: